sensor_id;sensor_type;location;lat;lon;timestamp;P1;durP1;ratioP1;P2;durP2;ratioP2
52244;SDS011;55759;51.586;-1.758;2023-09-30T00:01:08;20.67;;;3.38;;
52244;SDS011;55759;51.586;-1.758;2023-09-30T00:03:58;18.05;;;3.50;;
52244;SDS011;55759;51.586;-1.758;2023-09-30T00:06:31;19.55;;;3.83;;
52244;SDS011;55759;51.586;-1.758;2023-09-30T00:09:02;19.48;;;3.90;;
52244;SDS011;55759;51.586;-1.758;2023-09-30T00:11:56;18.33;;;3.63;;
52244;SDS011;55759;51.586;-1.758;2023-09-30T00:14:27;20.83;;;3.73;;
52244;SDS011;55759;51.586;-1.758;2023-09-30T00:17:02;19.77;;;3.22;;
52244;SDS011;55759;51.586;-1.758;2023-09-30T00:19:29;21.00;;;3.53;;
52244;SDS011;55759;51.586;-1.758;2023-09-30T00:22:07;12.30;;;2.97;;
52244;SDS011;55759;51.586;-1.758;2023-09-30T00:24:45;19.45;;;3.50;;
52244;SDS011;55759;51.586;-1.758;2023-09-30T00:27:20;14.70;;;3.30;;
52244;SDS011;55759;51.586;-1.758;2023-09-30T00:29:58;17.63;;;3.92;;
52244;SDS011;55759;51.586;-1.758;2023-09-30T00:32:34;17.17;;;3.63;;
52244;SDS011;55759;51.586;-1.758;2023-09-30T00:35:05;18.65;;;4.22;;
52244;SDS011;55759;51.586;-1.758;2023-09-30T00:37:39;16.25;;;3.13;;
52244;SDS011;55759;51.586;-1.758;2023-09-30T00:40:21;17.63;;;3.65;;
52244;SDS011;55759;51.586;-1.758;2023-09-30T00:42:49;22.05;;;3.72;;
52244;SDS011;55759;51.586;-1.758;2023-09-30T00:45:27;17.23;;;3.75;;
52244;SDS011;55759;51.586;-1.758;2023-09-30T00:48:12;19.00;;;3.67;;
52244;SDS011;55759;51.586;-1.758;2023-09-30T00:50:41;13.95;;;3.50;;
52244;SDS011;55759;51.586;-1.758;2023-09-30T00:53:20;17.15;;;3.75;;
52244;SDS011;55759;51.586;-1.758;2023-09-30T00:56:16;14.93;;;3.65;;
52244;SDS011;55759;51.586;-1.758;2023-09-30T00:58:59;15.90;;;4.18;;
52244;SDS011;55759;51.586;-1.758;2023-09-30T01:01:34;18.67;;;3.83;;
52244;SDS011;55759;51.586;-1.758;2023-09-30T01:04:12;15.75;;;4.00;;
52244;SDS011;55759;51.586;-1.758;2023-09-30T01:06:42;20.90;;;3.72;;
52244;SDS011;55759;51.586;-1.758;2023-09-30T01:09:29;15.85;;;3.70;;
52244;SDS011;55759;51.586;-1.758;2023-09-30T01:14:56;18.48;;;3.90;;
52244;SDS011;55759;51.586;-1.758;2023-09-30T01:17:29;20.67;;;3.40;;
52244;SDS011;55759;51.586;-1.758;2023-09-30T01:20:07;18.63;;;4.22;;
52244;SDS011;55759;51.586;-1.758;2023-09-30T01:22:43;17.63;;;3.47;;
52244;SDS011;55759;51.586;-1.758;2023-09-30T01:25:12;12.23;;;3.28;;
52244;SDS011;55759;51.586;-1.758;2023-09-30T01:28:00;19.40;;;3.47;;
52244;SDS011;55759;51.586;-1.758;2023-09-30T01:30:42;13.93;;;3.60;;
52244;SDS011;55759;51.586;-1.758;2023-09-30T01:33:12;17.38;;;3.80;;
52244;SDS011;55759;51.586;-1.758;2023-09-30T01:36:07;21.23;;;3.80;;
52244;SDS011;55759;51.586;-1.758;2023-09-30T01:38:51;21.08;;;3.60;;
52244;SDS011;55759;51.586;-1.758;2023-09-30T01:41:29;22.10;;;3.85;;
52244;SDS011;55759;51.586;-1.758;2023-09-30T01:44:00;18.33;;;4.00;;
52244;SDS011;55759;51.586;-1.758;2023-09-30T01:46:28;19.70;;;3.47;;
52244;SDS011;55759;51.586;-1.758;2023-09-30T01:49:07;18.50;;;3.60;;
52244;SDS011;55759;51.586;-1.758;2023-09-30T01:51:38;21.25;;;3.80;;
52244;SDS011;55759;51.586;-1.758;2023-09-30T01:54:07;23.67;;;5.22;;
52244;SDS011;55759;51.586;-1.758;2023-09-30T01:56:51;18.80;;;4.00;;
52244;SDS011;55759;51.586;-1.758;2023-09-30T01:59:21;14.73;;;3.95;;
52244;SDS011;55759;51.586;-1.758;2023-09-30T02:02:02;19.57;;;4.40;;
52244;SDS011;55759;51.586;-1.758;2023-09-30T02:04:36;17.70;;;4.55;;
52244;SDS011;55759;51.586;-1.758;2023-09-30T02:07:24;18.80;;;3.92;;
52244;SDS011;55759;51.586;-1.758;2023-09-30T02:10:06;16.38;;;3.70;;
52244;SDS011;55759;51.586;-1.758;2023-09-30T02:12:40;23.13;;;5.40;;
52244;SDS011;55759;51.586;-1.758;2023-09-30T02:15:12;25.25;;;4.90;;
52244;SDS011;55759;51.586;-1.758;2023-09-30T02:17:42;14.73;;;4.22;;
52244;SDS011;55759;51.586;-1.758;2023-09-30T02:20:10;18.00;;;4.45;;
52244;SDS011;55759;51.586;-1.758;2023-09-30T02:22:44;18.33;;;3.90;;
52244;SDS011;55759;51.586;-1.758;2023-09-30T02:25:12;20.88;;;4.18;;
52244;SDS011;55759;51.586;-1.758;2023-09-30T02:27:39;18.13;;;4.13;;
52244;SDS011;55759;51.586;-1.758;2023-09-30T02:30:16;24.00;;;4.10;;
52244;SDS011;55759;51.586;-1.758;2023-09-30T02:32:42;18.50;;;3.92;;
52244;SDS011;55759;51.586;-1.758;2023-09-30T02:35:11;17.17;;;3.90;;
52244;SDS011;55759;51.586;-1.758;2023-09-30T02:37:37;22.73;;;4.15;;
52244;SDS011;55759;51.586;-1.758;2023-09-30T02:40:19;21.42;;;8.48;;
52244;SDS011;55759;51.586;-1.758;2023-09-30T02:43:02;36.22;;;16.27;;
52244;SDS011;55759;51.586;-1.758;2023-09-30T02:45:36;30.00;;;11.77;;
52244;SDS011;55759;51.586;-1.758;2023-09-30T02:54:37;19.85;;;4.97;;
52244;SDS011;55759;51.586;-1.758;2023-09-30T02:59:53;17.85;;;4.18;;
52244;SDS011;55759;51.586;-1.758;2023-09-30T03:02:27;22.55;;;6.03;;
52244;SDS011;55759;51.586;-1.758;2023-09-30T03:08:01;15.27;;;4.53;;
52244;SDS011;55759;51.586;-1.758;2023-09-30T03:10:29;17.70;;;4.45;;
52244;SDS011;55759;51.586;-1.758;2023-09-30T03:12:57;21.05;;;4.65;;
52244;SDS011;55759;51.586;-1.758;2023-09-30T03:15:27;23.08;;;6.22;;
52244;SDS011;55759;51.586;-1.758;2023-09-30T03:17:58;23.02;;;5.13;;
52244;SDS011;55759;51.586;-1.758;2023-09-30T03:20:37;23.67;;;5.35;;
52244;SDS011;55759;51.586;-1.758;2023-09-30T03:23:24;23.20;;;4.75;;
52244;SDS011;55759;51.586;-1.758;2023-09-30T03:25:55;21.77;;;4.93;;
52244;SDS011;55759;51.586;-1.758;2023-09-30T03:28:25;19.23;;;6.07;;
52244;SDS011;55759;51.586;-1.758;2023-09-30T03:30:52;19.00;;;4.43;;
52244;SDS011;55759;51.586;-1.758;2023-09-30T03:33:23;17.25;;;4.15;;
52244;SDS011;55759;51.586;-1.758;2023-09-30T03:35:54;19.77;;;5.53;;
52244;SDS011;55759;51.586;-1.758;2023-09-30T03:41:56;16.77;;;3.88;;
52244;SDS011;55759;51.586;-1.758;2023-09-30T03:44:27;20.88;;;6.70;;
52244;SDS011;55759;51.586;-1.758;2023-09-30T03:47:01;31.85;;;4.78;;
52244;SDS011;55759;51.586;-1.758;2023-09-30T03:49:35;17.27;;;4.55;;
52244;SDS011;55759;51.586;-1.758;2023-09-30T03:52:03;17.52;;;3.85;;
52244;SDS011;55759;51.586;-1.758;2023-09-30T03:54:32;18.00;;;3.85;;
52244;SDS011;55759;51.586;-1.758;2023-09-30T03:56:57;15.65;;;3.65;;
52244;SDS011;55759;51.586;-1.758;2023-09-30T03:59:25;17.23;;;3.65;;
52244;SDS011;55759;51.586;-1.758;2023-09-30T04:01:51;11.70;;;3.05;;
52244;SDS011;55759;51.586;-1.758;2023-09-30T04:04:21;21.20;;;3.28;;
52244;SDS011;55759;51.586;-1.758;2023-09-30T04:06:47;11.88;;;3.85;;
52244;SDS011;55759;51.586;-1.758;2023-09-30T04:09:16;14.23;;;3.20;;
52244;SDS011;55759;51.586;-1.758;2023-09-30T04:11:44;17.27;;;3.38;;
52244;SDS011;55759;51.586;-1.758;2023-09-30T04:14:11;12.73;;;3.60;;
52244;SDS011;55759;51.586;-1.758;2023-09-30T04:16:37;12.40;;;3.67;;
52244;SDS011;55759;51.586;-1.758;2023-09-30T04:19:03;20.77;;;3.88;;
52244;SDS011;55759;51.586;-1.758;2023-09-30T04:21:53;15.40;;;4.03;;
52244;SDS011;55759;51.586;-1.758;2023-09-30T04:24:19;16.45;;;3.95;;
52244;SDS011;55759;51.586;-1.758;2023-09-30T04:26:45;16.60;;;3.38;;
52244;SDS011;55759;51.586;-1.758;2023-09-30T04:29:11;18.48;;;3.80;;
52244;SDS011;55759;51.586;-1.758;2023-09-30T04:31:42;21.08;;;4.35;;
52244;SDS011;55759;51.586;-1.758;2023-09-30T04:34:09;14.82;;;3.72;;
52244;SDS011;55759;51.586;-1.758;2023-09-30T04:47:31;15.80;;;3.40;;
52244;SDS011;55759;51.586;-1.758;2023-09-30T04:50:31;15.95;;;4.78;;
52244;SDS011;55759;51.586;-1.758;2023-09-30T04:53:46;16.63;;;4.88;;
52244;SDS011;55759;51.586;-1.758;2023-09-30T05:17:40;17.33;;;4.20;;
52244;SDS011;55759;51.586;-1.758;2023-09-30T05:31:13;18.08;;;3.95;;
52244;SDS011;55759;51.586;-1.758;2023-09-30T06:20:59;17.65;;;3.92;;
52244;SDS011;55759;51.586;-1.758;2023-09-30T06:30:53;17.73;;;4.10;;
52244;SDS011;55759;51.586;-1.758;2023-09-30T06:40:15;21.10;;;4.20;;
52244;SDS011;55759;51.586;-1.758;2023-09-30T06:59:20;24.42;;;4.35;;
52244;SDS011;55759;51.586;-1.758;2023-09-30T07:01:55;26.88;;;7.38;;
52244;SDS011;55759;51.586;-1.758;2023-09-30T07:14:38;22.27;;;4.80;;
52244;SDS011;55759;51.586;-1.758;2023-09-30T07:24:22;26.88;;;5.03;;
52244;SDS011;55759;51.586;-1.758;2023-09-30T07:30:39;15.93;;;4.68;;
52244;SDS011;55759;51.586;-1.758;2023-09-30T07:36:20;18.25;;;4.40;;
52244;SDS011;55759;51.586;-1.758;2023-09-30T07:42:12;15.55;;;3.70;;
52244;SDS011;55759;51.586;-1.758;2023-09-30T07:48:59;15.50;;;3.60;;
52244;SDS011;55759;51.586;-1.758;2023-09-30T08:05:33;15.52;;;3.05;;
52244;SDS011;55759;51.586;-1.758;2023-09-30T08:19:13;16.95;;;5.93;;
52244;SDS011;55759;51.586;-1.758;2023-09-30T08:50:12;12.55;;;4.32;;
52244;SDS011;55759;51.586;-1.758;2023-09-30T08:53:18;9.95;;;2.22;;
52244;SDS011;55759;51.586;-1.758;2023-09-30T08:56:34;13.77;;;3.45;;
52244;SDS011;55759;51.586;-1.758;2023-09-30T08:59:24;9.75;;;3.15;;
52244;SDS011;55759;51.586;-1.758;2023-09-30T09:05:46;15.27;;;5.00;;
52244;SDS011;55759;51.586;-1.758;2023-09-30T09:08:52;16.33;;;6.05;;
52244;SDS011;55759;51.586;-1.758;2023-09-30T09:11:22;11.68;;;4.25;;
52244;SDS011;55759;51.586;-1.758;2023-09-30T09:14:19;7.65;;;2.30;;
52244;SDS011;55759;51.586;-1.758;2023-09-30T09:17:54;11.48;;;3.15;;
52244;SDS011;55759;51.586;-1.758;2023-09-30T09:21:01;16.23;;;6.95;;
52244;SDS011;55759;51.586;-1.758;2023-09-30T09:45:25;10.05;;;2.35;;
52244;SDS011;55759;51.586;-1.758;2023-09-30T09:58:59;9.65;;;2.03;;
52244;SDS011;55759;51.586;-1.758;2023-09-30T10:11:51;10.68;;;2.92;;
52244;SDS011;55759;51.586;-1.758;2023-09-30T10:14:47;10.45;;;2.50;;
52244;SDS011;55759;51.586;-1.758;2023-09-30T11:09:22;11.70;;;2.80;;
52244;SDS011;55759;51.586;-1.758;2023-09-30T11:12:29;8.85;;;3.08;;
52244;SDS011;55759;51.586;-1.758;2023-09-30T11:26:05;7.53;;;2.50;;
52244;SDS011;55759;51.586;-1.758;2023-09-30T11:32:45;13.57;;;2.28;;
52244;SDS011;55759;51.586;-1.758;2023-09-30T11:39:20;12.18;;;2.72;;
52244;SDS011;55759;51.586;-1.758;2023-09-30T11:43:06;10.05;;;2.35;;
52244;SDS011;55759;51.586;-1.758;2023-09-30T11:49:11;10.20;;;2.83;;
52244;SDS011;55759;51.586;-1.758;2023-09-30T13:44:09;12.20;;;2.10;;
52244;SDS011;55759;51.586;-1.758;2023-09-30T15:36:22;11.33;;;3.27;;
52244;SDS011;55759;51.586;-1.758;2023-09-30T15:38:59;12.40;;;2.92;;
52244;SDS011;55759;51.586;-1.758;2023-09-30T15:41:49;14.77;;;3.47;;
52244;SDS011;55759;51.586;-1.758;2023-09-30T15:47:45;16.73;;;3.53;;
52244;SDS011;55759;51.586;-1.758;2023-09-30T15:50:20;16.17;;;3.17;;
52244;SDS011;55759;51.586;-1.758;2023-09-30T15:56:02;19.55;;;4.07;;
52244;SDS011;55759;51.586;-1.758;2023-09-30T15:58:58;14.05;;;3.78;;
52244;SDS011;55759;51.586;-1.758;2023-09-30T16:01:39;10.43;;;3.33;;
52244;SDS011;55759;51.586;-1.758;2023-09-30T16:04:24;18.20;;;4.75;;
52244;SDS011;55759;51.586;-1.758;2023-09-30T16:10:15;12.98;;;3.20;;
52244;SDS011;55759;51.586;-1.758;2023-09-30T16:12:57;14.48;;;3.42;;
52244;SDS011;55759;51.586;-1.758;2023-09-30T16:15:25;17.00;;;3.92;;
52244;SDS011;55759;51.586;-1.758;2023-09-30T16:18:01;13.52;;;3.55;;
52244;SDS011;55759;51.586;-1.758;2023-09-30T16:21:00;15.30;;;3.40;;
52244;SDS011;55759;51.586;-1.758;2023-09-30T16:23:54;15.10;;;3.75;;
52244;SDS011;55759;51.586;-1.758;2023-09-30T16:26:46;12.48;;;3.80;;
52244;SDS011;55759;51.586;-1.758;2023-09-30T16:29:31;15.35;;;4.18;;
52244;SDS011;55759;51.586;-1.758;2023-09-30T16:32:28;11.43;;;3.63;;
52244;SDS011;55759;51.586;-1.758;2023-09-30T16:35:10;16.48;;;4.15;;
52244;SDS011;55759;51.586;-1.758;2023-09-30T16:37:47;18.85;;;4.35;;
52244;SDS011;55759;51.586;-1.758;2023-09-30T16:43:45;17.73;;;4.90;;
52244;SDS011;55759;51.586;-1.758;2023-09-30T16:50:19;19.23;;;4.47;;
52244;SDS011;55759;51.586;-1.758;2023-09-30T16:52:54;19.65;;;4.60;;
52244;SDS011;55759;51.586;-1.758;2023-09-30T16:58:54;17.48;;;4.97;;
52244;SDS011;55759;51.586;-1.758;2023-09-30T17:04:27;14.85;;;4.70;;
52244;SDS011;55759;51.586;-1.758;2023-09-30T17:07:30;14.40;;;4.47;;
52244;SDS011;55759;51.586;-1.758;2023-09-30T17:10:18;15.18;;;4.15;;
52244;SDS011;55759;51.586;-1.758;2023-09-30T17:13:13;14.45;;;4.55;;
52244;SDS011;55759;51.586;-1.758;2023-09-30T17:15:53;20.05;;;5.03;;
52244;SDS011;55759;51.586;-1.758;2023-09-30T17:18:48;17.45;;;5.18;;
52244;SDS011;55759;51.586;-1.758;2023-09-30T17:21:19;14.45;;;4.72;;
52244;SDS011;55759;51.586;-1.758;2023-09-30T17:23:57;16.58;;;4.63;;
52244;SDS011;55759;51.586;-1.758;2023-09-30T17:26:33;15.15;;;5.35;;
52244;SDS011;55759;51.586;-1.758;2023-09-30T17:29:16;18.55;;;4.90;;
52244;SDS011;55759;51.586;-1.758;2023-09-30T17:32:25;18.15;;;5.10;;
52244;SDS011;55759;51.586;-1.758;2023-09-30T17:41:23;19.13;;;5.15;;
52244;SDS011;55759;51.586;-1.758;2023-09-30T17:44:00;15.80;;;4.57;;
52244;SDS011;55759;51.586;-1.758;2023-09-30T17:46:38;14.80;;;4.68;;
52244;SDS011;55759;51.586;-1.758;2023-09-30T17:49:17;23.50;;;4.53;;
52244;SDS011;55759;51.586;-1.758;2023-09-30T17:52:14;15.65;;;5.05;;
52244;SDS011;55759;51.586;-1.758;2023-09-30T17:54:53;18.92;;;5.18;;
52244;SDS011;55759;51.586;-1.758;2023-09-30T17:57:42;14.73;;;4.50;;
52244;SDS011;55759;51.586;-1.758;2023-09-30T18:03:47;12.57;;;4.53;;
52244;SDS011;55759;51.586;-1.758;2023-09-30T18:15:56;16.23;;;4.40;;
52244;SDS011;55759;51.586;-1.758;2023-09-30T18:19:08;16.55;;;4.93;;
52244;SDS011;55759;51.586;-1.758;2023-09-30T18:32:04;19.30;;;4.57;;
52244;SDS011;55759;51.586;-1.758;2023-09-30T18:35:01;14.02;;;4.28;;
52244;SDS011;55759;51.586;-1.758;2023-09-30T18:37:31;21.92;;;5.10;;
52244;SDS011;55759;51.586;-1.758;2023-09-30T18:55:34;13.85;;;5.15;;
52244;SDS011;55759;51.586;-1.758;2023-09-30T18:58:08;20.13;;;4.95;;
52244;SDS011;55759;51.586;-1.758;2023-09-30T19:00:48;14.52;;;4.90;;
52244;SDS011;55759;51.586;-1.758;2023-09-30T19:04:11;19.65;;;4.63;;
52244;SDS011;55759;51.586;-1.758;2023-09-30T19:10:29;15.85;;;4.78;;
52244;SDS011;55759;51.586;-1.758;2023-09-30T19:18:52;19.02;;;5.00;;
52244;SDS011;55759;51.586;-1.758;2023-09-30T19:21:21;15.82;;;4.88;;
52244;SDS011;55759;51.586;-1.758;2023-09-30T19:24:11;19.42;;;5.53;;
52244;SDS011;55759;51.586;-1.758;2023-09-30T19:27:07;14.85;;;4.72;;
52244;SDS011;55759;51.586;-1.758;2023-09-30T19:29:35;16.85;;;4.85;;
52244;SDS011;55759;51.586;-1.758;2023-09-30T19:32:07;16.20;;;4.85;;
52244;SDS011;55759;51.586;-1.758;2023-09-30T19:35:02;15.88;;;4.55;;
52244;SDS011;55759;51.586;-1.758;2023-09-30T19:37:34;13.88;;;5.00;;
52244;SDS011;55759;51.586;-1.758;2023-09-30T19:40:14;16.77;;;4.80;;
52244;SDS011;55759;51.586;-1.758;2023-09-30T19:42:43;23.52;;;4.80;;
52244;SDS011;55759;51.586;-1.758;2023-09-30T19:45:11;14.75;;;4.70;;
52244;SDS011;55759;51.586;-1.758;2023-09-30T19:47:40;17.60;;;5.22;;
52244;SDS011;55759;51.586;-1.758;2023-09-30T19:50:18;18.45;;;5.28;;
52244;SDS011;55759;51.586;-1.758;2023-09-30T19:52:44;16.45;;;4.97;;
52244;SDS011;55759;51.586;-1.758;2023-09-30T19:55:10;14.77;;;5.07;;
52244;SDS011;55759;51.586;-1.758;2023-09-30T20:03:34;20.33;;;5.90;;
52244;SDS011;55759;51.586;-1.758;2023-09-30T20:06:25;14.95;;;4.47;;
52244;SDS011;55759;51.586;-1.758;2023-09-30T20:09:15;14.13;;;4.40;;
52244;SDS011;55759;51.586;-1.758;2023-09-30T20:12:37;20.52;;;5.50;;
52244;SDS011;55759;51.586;-1.758;2023-09-30T20:15:55;16.88;;;5.30;;
52244;SDS011;55759;51.586;-1.758;2023-09-30T20:18:37;15.30;;;5.15;;
52244;SDS011;55759;51.586;-1.758;2023-09-30T20:21:15;17.40;;;4.93;;
52244;SDS011;55759;51.586;-1.758;2023-09-30T20:23:58;16.25;;;5.05;;
52244;SDS011;55759;51.586;-1.758;2023-09-30T20:26:30;14.68;;;5.47;;
52244;SDS011;55759;51.586;-1.758;2023-09-30T20:29:16;16.27;;;5.32;;
52244;SDS011;55759;51.586;-1.758;2023-09-30T20:31:52;15.50;;;5.32;;
52244;SDS011;55759;51.586;-1.758;2023-09-30T20:34:20;20.10;;;7.20;;
52244;SDS011;55759;51.586;-1.758;2023-09-30T20:36:54;19.83;;;6.68;;
52244;SDS011;55759;51.586;-1.758;2023-09-30T20:39:31;17.02;;;6.72;;
52244;SDS011;55759;51.586;-1.758;2023-09-30T20:42:09;18.15;;;5.90;;
52244;SDS011;55759;51.586;-1.758;2023-09-30T20:48:04;18.00;;;5.40;;
52244;SDS011;55759;51.586;-1.758;2023-09-30T20:50:50;21.80;;;6.13;;
52244;SDS011;55759;51.586;-1.758;2023-09-30T20:53:22;21.27;;;5.65;;
52244;SDS011;55759;51.586;-1.758;2023-09-30T20:55:53;17.55;;;5.78;;
52244;SDS011;55759;51.586;-1.758;2023-09-30T20:58:25;16.35;;;5.80;;
52244;SDS011;55759;51.586;-1.758;2023-09-30T21:00:57;20.50;;;6.75;;
52244;SDS011;55759;51.586;-1.758;2023-09-30T21:03:50;22.88;;;6.95;;
52244;SDS011;55759;51.586;-1.758;2023-09-30T21:06:30;22.00;;;6.38;;
52244;SDS011;55759;51.586;-1.758;2023-09-30T21:18:12;19.23;;;6.95;;
52244;SDS011;55759;51.586;-1.758;2023-09-30T21:21:13;20.92;;;7.07;;
52244;SDS011;55759;51.586;-1.758;2023-09-30T21:30:03;22.77;;;7.35;;
52244;SDS011;55759;51.586;-1.758;2023-09-30T21:32:40;22.77;;;7.07;;
52244;SDS011;55759;51.586;-1.758;2023-09-30T21:35:24;26.00;;;7.47;;
52244;SDS011;55759;51.586;-1.758;2023-09-30T21:38:25;17.60;;;6.63;;
52244;SDS011;55759;51.586;-1.758;2023-09-30T21:41:00;17.88;;;7.03;;
52244;SDS011;55759;51.586;-1.758;2023-09-30T21:43:35;21.88;;;7.65;;
52244;SDS011;55759;51.586;-1.758;2023-09-30T21:46:07;17.25;;;7.25;;
52244;SDS011;55759;51.586;-1.758;2023-09-30T21:48:36;23.63;;;7.97;;
52244;SDS011;55759;51.586;-1.758;2023-09-30T21:51:06;21.60;;;7.88;;
52244;SDS011;55759;51.586;-1.758;2023-09-30T21:53:32;22.30;;;7.65;;
52244;SDS011;55759;51.586;-1.758;2023-09-30T21:56:01;22.10;;;7.55;;
52244;SDS011;55759;51.586;-1.758;2023-09-30T21:58:28;25.65;;;8.35;;
52244;SDS011;55759;51.586;-1.758;2023-09-30T22:03:28;18.65;;;6.50;;
52244;SDS011;55759;51.586;-1.758;2023-09-30T22:05:56;20.58;;;6.63;;
52244;SDS011;55759;51.586;-1.758;2023-09-30T22:08:24;20.98;;;7.00;;
52244;SDS011;55759;51.586;-1.758;2023-09-30T22:10:51;20.75;;;7.18;;
52244;SDS011;55759;51.586;-1.758;2023-09-30T22:13:18;19.92;;;7.10;;
52244;SDS011;55759;51.586;-1.758;2023-09-30T22:15:51;20.65;;;6.75;;
52244;SDS011;55759;51.586;-1.758;2023-09-30T22:18:31;17.95;;;7.07;;
52244;SDS011;55759;51.586;-1.758;2023-09-30T22:21:10;17.65;;;7.15;;
52244;SDS011;55759;51.586;-1.758;2023-09-30T22:23:37;15.65;;;6.55;;
52244;SDS011;55759;51.586;-1.758;2023-09-30T22:26:04;18.15;;;6.65;;
52244;SDS011;55759;51.586;-1.758;2023-09-30T22:29:16;22.73;;;6.90;;
52244;SDS011;55759;51.586;-1.758;2023-09-30T22:31:42;16.23;;;6.18;;
52244;SDS011;55759;51.586;-1.758;2023-09-30T22:34:08;22.52;;;6.70;;
52244;SDS011;55759;51.586;-1.758;2023-09-30T22:36:34;21.65;;;6.90;;
52244;SDS011;55759;51.586;-1.758;2023-09-30T22:39:01;20.85;;;7.05;;
52244;SDS011;55759;51.586;-1.758;2023-09-30T22:41:28;18.65;;;7.18;;
52244;SDS011;55759;51.586;-1.758;2023-09-30T22:44:04;23.42;;;7.20;;
52244;SDS011;55759;51.586;-1.758;2023-09-30T22:46:30;21.48;;;6.18;;
52244;SDS011;55759;51.586;-1.758;2023-09-30T22:48:56;23.40;;;6.93;;
52244;SDS011;55759;51.586;-1.758;2023-09-30T22:53:48;19.25;;;6.82;;
52244;SDS011;55759;51.586;-1.758;2023-09-30T22:56:27;26.00;;;7.60;;
52244;SDS011;55759;51.586;-1.758;2023-09-30T22:58:53;20.75;;;7.53;;
52244;SDS011;55759;51.586;-1.758;2023-09-30T23:01:20;17.38;;;6.68;;
52244;SDS011;55759;51.586;-1.758;2023-09-30T23:03:51;21.85;;;7.15;;
52244;SDS011;55759;51.586;-1.758;2023-09-30T23:06:19;21.02;;;7.25;;
52244;SDS011;55759;51.586;-1.758;2023-09-30T23:08:48;20.17;;;7.75;;
52244;SDS011;55759;51.586;-1.758;2023-09-30T23:11:20;21.13;;;7.22;;
52244;SDS011;55759;51.586;-1.758;2023-09-30T23:13:49;19.85;;;7.18;;
52244;SDS011;55759;51.586;-1.758;2023-09-30T23:16:21;22.35;;;8.18;;
52244;SDS011;55759;51.586;-1.758;2023-09-30T23:18:54;18.88;;;6.57;;
52244;SDS011;55759;51.586;-1.758;2023-09-30T23:21:41;19.42;;;7.15;;
52244;SDS011;55759;51.586;-1.758;2023-09-30T23:24:09;21.50;;;6.78;;
52244;SDS011;55759;51.586;-1.758;2023-09-30T23:29:59;20.58;;;6.93;;
52244;SDS011;55759;51.586;-1.758;2023-09-30T23:32:42;17.42;;;6.43;;
52244;SDS011;55759;51.586;-1.758;2023-09-30T23:35:16;19.77;;;6.78;;
52244;SDS011;55759;51.586;-1.758;2023-09-30T23:37:48;19.17;;;6.25;;
52244;SDS011;55759;51.586;-1.758;2023-09-30T23:40:20;19.45;;;6.75;;
52244;SDS011;55759;51.586;-1.758;2023-09-30T23:42:51;15.68;;;6.13;;
52244;SDS011;55759;51.586;-1.758;2023-09-30T23:45:18;18.48;;;5.95;;
52244;SDS011;55759;51.586;-1.758;2023-09-30T23:47:45;19.80;;;6.35;;
52244;SDS011;55759;51.586;-1.758;2023-09-30T23:50:17;13.20;;;5.97;;
52244;SDS011;55759;51.586;-1.758;2023-09-30T23:52:44;19.45;;;6.57;;
52244;SDS011;55759;51.586;-1.758;2023-09-30T23:55:14;14.50;;;5.78;;
52244;SDS011;55759;51.586;-1.758;2023-09-30T23:57:45;16.98;;;5.95;;
